sensor_id;sensor_type;location;lat;lon;timestamp;P1;durP1;ratioP1;P2;durP2;ratioP2
41984;SDS011;28319;48.116;10.818;2023-07-08T00:01:32;4.55;;;4.07;;
41984;SDS011;28319;48.116;10.818;2023-07-08T00:06:36;4.35;;;3.53;;
41984;SDS011;28319;48.116;10.818;2023-07-08T00:11:38;5.72;;;4.30;;
41984;SDS011;28319;48.116;10.818;2023-07-08T00:16:42;6.28;;;4.10;;
41984;SDS011;28319;48.116;10.818;2023-07-08T00:21:47;4.72;;;3.75;;
41984;SDS011;28319;48.116;10.818;2023-07-08T00:26:49;5.57;;;4.30;;
41984;SDS011;28319;48.116;10.818;2023-07-08T00:31:51;5.35;;;4.18;;
41984;SDS011;28319;48.116;10.818;2023-07-08T00:36:56;5.03;;;4.03;;
41984;SDS011;28319;48.116;10.818;2023-07-08T00:41:58;4.72;;;4.10;;
41984;SDS011;28319;48.116;10.818;2023-07-08T00:47:03;4.47;;;3.60;;
41984;SDS011;28319;48.116;10.818;2023-07-08T00:52:23;4.53;;;3.85;;
41984;SDS011;28319;48.116;10.818;2023-07-08T00:57:29;5.85;;;4.30;;
41984;SDS011;28319;48.116;10.818;2023-07-08T01:02:34;5.38;;;4.30;;
41984;SDS011;28319;48.116;10.818;2023-07-08T01:07:40;8.57;;;4.72;;
41984;SDS011;28319;48.116;10.818;2023-07-08T01:12:47;4.80;;;4.07;;
41984;SDS011;28319;48.116;10.818;2023-07-08T01:17:54;5.13;;;4.10;;
41984;SDS011;28319;48.116;10.818;2023-07-08T01:22:58;6.15;;;4.13;;
41984;SDS011;28319;48.116;10.818;2023-07-08T01:28:03;4.50;;;4.10;;
41984;SDS011;28319;48.116;10.818;2023-07-08T01:33:07;5.22;;;4.18;;
41984;SDS011;28319;48.116;10.818;2023-07-08T01:38:19;4.40;;;3.97;;
41984;SDS011;28319;48.116;10.818;2023-07-08T01:43:26;5.25;;;4.00;;
41984;SDS011;28319;48.116;10.818;2023-07-08T01:48:29;4.82;;;3.70;;
41984;SDS011;28319;48.116;10.818;2023-07-08T01:53:37;5.22;;;3.97;;
41984;SDS011;28319;48.116;10.818;2023-07-08T01:58:41;5.97;;;4.18;;
41984;SDS011;28319;48.116;10.818;2023-07-08T02:03:44;4.70;;;3.97;;
41984;SDS011;28319;48.116;10.818;2023-07-08T02:08:50;4.43;;;3.88;;
41984;SDS011;28319;48.116;10.818;2023-07-08T02:13:52;7.43;;;4.10;;
41984;SDS011;28319;48.116;10.818;2023-07-08T02:18:54;4.50;;;3.67;;
41984;SDS011;28319;48.116;10.818;2023-07-08T02:23:58;5.30;;;4.05;;
41984;SDS011;28319;48.116;10.818;2023-07-08T02:29:02;5.38;;;4.07;;
41984;SDS011;28319;48.116;10.818;2023-07-08T02:34:04;5.82;;;4.32;;
41984;SDS011;28319;48.116;10.818;2023-07-08T02:39:07;7.93;;;4.53;;
41984;SDS011;28319;48.116;10.818;2023-07-08T02:44:11;5.90;;;4.03;;
41984;SDS011;28319;48.116;10.818;2023-07-08T02:49:13;5.38;;;4.25;;
41984;SDS011;28319;48.116;10.818;2023-07-08T02:54:17;4.90;;;4.40;;
41984;SDS011;28319;48.116;10.818;2023-07-08T02:59:19;3.97;;;3.60;;
41984;SDS011;28319;48.116;10.818;2023-07-08T03:04:21;5.65;;;4.30;;
41984;SDS011;28319;48.116;10.818;2023-07-08T03:09:26;5.25;;;3.72;;
41984;SDS011;28319;48.116;10.818;2023-07-08T03:14:29;4.63;;;3.95;;
41984;SDS011;28319;48.116;10.818;2023-07-08T03:19:31;8.20;;;4.38;;
41984;SDS011;28319;48.116;10.818;2023-07-08T03:24:34;5.07;;;4.10;;
41984;SDS011;28319;48.116;10.818;2023-07-08T03:29:37;6.57;;;4.47;;
41984;SDS011;28319;48.116;10.818;2023-07-08T03:34:39;5.85;;;4.45;;
41984;SDS011;28319;48.116;10.818;2023-07-08T03:39:42;5.28;;;4.60;;
41984;SDS011;28319;48.116;10.818;2023-07-08T03:44:44;7.63;;;4.82;;
41984;SDS011;28319;48.116;10.818;2023-07-08T03:49:46;6.63;;;4.82;;
41984;SDS011;28319;48.116;10.818;2023-07-08T03:54:51;5.85;;;4.75;;
41984;SDS011;28319;48.116;10.818;2023-07-08T03:59:53;7.78;;;5.20;;
41984;SDS011;28319;48.116;10.818;2023-07-08T04:04:55;6.88;;;4.85;;
41984;SDS011;28319;48.116;10.818;2023-07-08T04:09:59;8.32;;;5.40;;
41984;SDS011;28319;48.116;10.818;2023-07-08T04:15:01;7.72;;;5.00;;
41984;SDS011;28319;48.116;10.818;2023-07-08T04:20:04;7.13;;;4.90;;
41984;SDS011;28319;48.116;10.818;2023-07-08T04:25:10;10.45;;;5.68;;
41984;SDS011;28319;48.116;10.818;2023-07-08T04:30:14;7.40;;;4.95;;
41984;SDS011;28319;48.116;10.818;2023-07-08T04:35:23;11.32;;;5.25;;
41984;SDS011;28319;48.116;10.818;2023-07-08T04:40:26;5.63;;;4.45;;
41984;SDS011;28319;48.116;10.818;2023-07-08T04:45:29;8.10;;;5.40;;
41984;SDS011;28319;48.116;10.818;2023-07-08T04:50:32;7.78;;;4.82;;
41984;SDS011;28319;48.116;10.818;2023-07-08T04:55:36;7.68;;;5.90;;
41984;SDS011;28319;48.116;10.818;2023-07-08T05:00:42;6.13;;;4.72;;
41984;SDS011;28319;48.116;10.818;2023-07-08T05:05:44;5.55;;;4.60;;
41984;SDS011;28319;48.116;10.818;2023-07-08T05:10:48;5.75;;;4.40;;
41984;SDS011;28319;48.116;10.818;2023-07-08T05:15:50;6.90;;;4.72;;
41984;SDS011;28319;48.116;10.818;2023-07-08T05:20:52;7.63;;;4.63;;
41984;SDS011;28319;48.116;10.818;2023-07-08T05:25:56;4.97;;;4.35;;
41984;SDS011;28319;48.116;10.818;2023-07-08T05:31:03;4.78;;;3.90;;
41984;SDS011;28319;48.116;10.818;2023-07-08T05:36:05;6.95;;;4.55;;
41984;SDS011;28319;48.116;10.818;2023-07-08T05:41:08;8.35;;;4.53;;
41984;SDS011;28319;48.116;10.818;2023-07-08T05:46:12;6.70;;;5.40;;
41984;SDS011;28319;48.116;10.818;2023-07-08T05:51:16;7.20;;;5.30;;
41984;SDS011;28319;48.116;10.818;2023-07-08T05:56:30;6.30;;;4.93;;
41984;SDS011;28319;48.116;10.818;2023-07-08T06:01:32;8.98;;;5.22;;
41984;SDS011;28319;48.116;10.818;2023-07-08T06:06:35;7.43;;;5.03;;
41984;SDS011;28319;48.116;10.818;2023-07-08T06:11:41;8.45;;;5.03;;
41984;SDS011;28319;48.116;10.818;2023-07-08T06:16:45;6.90;;;4.70;;
41984;SDS011;28319;48.116;10.818;2023-07-08T06:21:47;7.25;;;4.57;;
41984;SDS011;28319;48.116;10.818;2023-07-08T06:26:50;6.07;;;4.75;;
41984;SDS011;28319;48.116;10.818;2023-07-08T06:31:53;7.22;;;5.38;;
41984;SDS011;28319;48.116;10.818;2023-07-08T06:36:55;8.05;;;4.68;;
41984;SDS011;28319;48.116;10.818;2023-07-08T06:41:59;7.03;;;5.10;;
41984;SDS011;28319;48.116;10.818;2023-07-08T06:47:03;6.93;;;4.65;;
41984;SDS011;28319;48.116;10.818;2023-07-08T06:52:06;9.35;;;5.25;;
41984;SDS011;28319;48.116;10.818;2023-07-08T06:57:10;9.60;;;5.75;;
41984;SDS011;28319;48.116;10.818;2023-07-08T07:02:13;8.82;;;5.35;;
41984;SDS011;28319;48.116;10.818;2023-07-08T07:07:17;7.22;;;5.55;;
41984;SDS011;28319;48.116;10.818;2023-07-08T07:12:21;6.38;;;4.90;;
41984;SDS011;28319;48.116;10.818;2023-07-08T07:17:24;6.80;;;4.90;;
41984;SDS011;28319;48.116;10.818;2023-07-08T07:22:27;8.85;;;5.65;;
41984;SDS011;28319;48.116;10.818;2023-07-08T07:27:30;8.80;;;5.05;;
41984;SDS011;28319;48.116;10.818;2023-07-08T07:32:32;12.02;;;5.65;;
41984;SDS011;28319;48.116;10.818;2023-07-08T07:37:35;7.15;;;5.20;;
41984;SDS011;28319;48.116;10.818;2023-07-08T07:42:39;10.25;;;5.38;;
41984;SDS011;28319;48.116;10.818;2023-07-08T07:47:42;10.45;;;5.80;;
41984;SDS011;28319;48.116;10.818;2023-07-08T07:52:44;13.70;;;5.10;;
41984;SDS011;28319;48.116;10.818;2023-07-08T07:57:48;7.15;;;4.95;;
41984;SDS011;28319;48.116;10.818;2023-07-08T08:02:50;8.50;;;5.30;;
41984;SDS011;28319;48.116;10.818;2023-07-08T08:07:52;6.82;;;4.82;;
41984;SDS011;28319;48.116;10.818;2023-07-08T08:12:56;8.65;;;5.20;;
41984;SDS011;28319;48.116;10.818;2023-07-08T08:17:59;8.25;;;5.35;;
41984;SDS011;28319;48.116;10.818;2023-07-08T08:23:01;8.55;;;5.47;;
41984;SDS011;28319;48.116;10.818;2023-07-08T08:28:05;7.53;;;5.35;;
41984;SDS011;28319;48.116;10.818;2023-07-08T08:33:08;6.65;;;4.35;;
41984;SDS011;28319;48.116;10.818;2023-07-08T08:38:10;8.95;;;4.82;;
41984;SDS011;28319;48.116;10.818;2023-07-08T08:43:14;5.65;;;4.30;;
41984;SDS011;28319;48.116;10.818;2023-07-08T08:48:19;8.43;;;4.55;;
41984;SDS011;28319;48.116;10.818;2023-07-08T08:53:22;4.90;;;3.85;;
41984;SDS011;28319;48.116;10.818;2023-07-08T08:58:33;6.10;;;4.50;;
41984;SDS011;28319;48.116;10.818;2023-07-08T09:03:43;8.95;;;4.88;;
41984;SDS011;28319;48.116;10.818;2023-07-08T09:08:49;10.30;;;4.82;;
41984;SDS011;28319;48.116;10.818;2023-07-08T09:13:59;7.78;;;4.32;;
41984;SDS011;28319;48.116;10.818;2023-07-08T09:19:04;5.43;;;4.22;;
41984;SDS011;28319;48.116;10.818;2023-07-08T09:24:13;5.38;;;3.60;;
41984;SDS011;28319;48.116;10.818;2023-07-08T09:29:22;5.38;;;3.40;;
41984;SDS011;28319;48.116;10.818;2023-07-08T09:34:35;4.88;;;3.70;;
41984;SDS011;28319;48.116;10.818;2023-07-08T09:39:38;4.68;;;3.08;;
41984;SDS011;28319;48.116;10.818;2023-07-08T09:44:43;5.10;;;3.40;;
41984;SDS011;28319;48.116;10.818;2023-07-08T09:49:46;4.35;;;3.40;;
41984;SDS011;28319;48.116;10.818;2023-07-08T09:54:49;5.00;;;3.28;;
41984;SDS011;28319;48.116;10.818;2023-07-08T09:59:54;2.97;;;2.60;;
41984;SDS011;28319;48.116;10.818;2023-07-08T10:05:03;4.68;;;2.60;;
41984;SDS011;28319;48.116;10.818;2023-07-08T10:10:26;2.50;;;2.30;;
41984;SDS011;28319;48.116;10.818;2023-07-08T10:15:36;4.28;;;2.70;;
41984;SDS011;28319;48.116;10.818;2023-07-08T10:20:50;4.32;;;2.58;;
41984;SDS011;28319;48.116;10.818;2023-07-08T10:26:00;3.13;;;2.45;;
41984;SDS011;28319;48.116;10.818;2023-07-08T10:31:20;3.83;;;2.50;;
41984;SDS011;28319;48.116;10.818;2023-07-08T10:36:34;6.82;;;2.15;;
41984;SDS011;28319;48.116;10.818;2023-07-08T10:41:50;4.55;;;2.55;;
41984;SDS011;28319;48.116;10.818;2023-07-08T10:47:03;4.18;;;2.70;;
41984;SDS011;28319;48.116;10.818;2023-07-08T10:52:22;2.63;;;2.42;;
41984;SDS011;28319;48.116;10.818;2023-07-08T10:57:54;2.78;;;2.47;;
41984;SDS011;28319;48.116;10.818;2023-07-08T11:03:25;4.35;;;2.53;;
41984;SDS011;28319;48.116;10.818;2023-07-08T11:08:42;3.47;;;2.47;;
41984;SDS011;28319;48.116;10.818;2023-07-08T11:13:47;2.60;;;2.40;;
41984;SDS011;28319;48.116;10.818;2023-07-08T11:18:56;2.72;;;2.50;;
41984;SDS011;28319;48.116;10.818;2023-07-08T11:24:12;5.63;;;2.80;;
41984;SDS011;28319;48.116;10.818;2023-07-08T11:29:29;3.85;;;2.58;;
41984;SDS011;28319;48.116;10.818;2023-07-08T11:34:42;5.47;;;2.75;;
41984;SDS011;28319;48.116;10.818;2023-07-08T11:39:53;3.10;;;2.75;;
41984;SDS011;28319;48.116;10.818;2023-07-08T11:44:56;4.22;;;2.78;;
41984;SDS011;28319;48.116;10.818;2023-07-08T11:50:02;7.45;;;2.78;;
41984;SDS011;28319;48.116;10.818;2023-07-08T11:55:12;5.65;;;3.40;;
41984;SDS011;28319;48.116;10.818;2023-07-08T12:00:22;6.75;;;3.28;;
41984;SDS011;28319;48.116;10.818;2023-07-08T12:05:31;4.05;;;3.03;;
41984;SDS011;28319;48.116;10.818;2023-07-08T12:10:37;4.38;;;2.85;;
41984;SDS011;28319;48.116;10.818;2023-07-08T12:15:41;4.53;;;2.42;;
41984;SDS011;28319;48.116;10.818;2023-07-08T12:20:45;3.67;;;2.60;;
41984;SDS011;28319;48.116;10.818;2023-07-08T12:25:49;3.28;;;2.60;;
41984;SDS011;28319;48.116;10.818;2023-07-08T12:30:53;4.35;;;2.47;;
41984;SDS011;28319;48.116;10.818;2023-07-08T12:36:01;2.90;;;2.60;;
41984;SDS011;28319;48.116;10.818;2023-07-08T12:41:07;3.10;;;2.80;;
41984;SDS011;28319;48.116;10.818;2023-07-08T12:46:12;4.55;;;2.42;;
41984;SDS011;28319;48.116;10.818;2023-07-08T12:51:17;4.50;;;2.65;;
41984;SDS011;28319;48.116;10.818;2023-07-08T12:56:22;2.65;;;2.33;;
41984;SDS011;28319;48.116;10.818;2023-07-08T13:01:25;2.50;;;2.30;;
41984;SDS011;28319;48.116;10.818;2023-07-08T13:06:33;3.33;;;2.67;;
41984;SDS011;28319;48.116;10.818;2023-07-08T13:11:36;2.85;;;2.50;;
41984;SDS011;28319;48.116;10.818;2023-07-08T13:16:39;3.53;;;2.50;;
41984;SDS011;28319;48.116;10.818;2023-07-08T13:21:43;3.50;;;2.45;;
41984;SDS011;28319;48.116;10.818;2023-07-08T13:26:47;5.40;;;2.90;;
41984;SDS011;28319;48.116;10.818;2023-07-08T13:31:53;3.85;;;2.45;;
41984;SDS011;28319;48.116;10.818;2023-07-08T13:36:59;2.42;;;2.10;;
41984;SDS011;28319;48.116;10.818;2023-07-08T13:42:01;3.00;;;2.70;;
41984;SDS011;28319;48.116;10.818;2023-07-08T13:47:18;3.67;;;2.70;;
41984;SDS011;28319;48.116;10.818;2023-07-08T13:52:23;2.55;;;2.35;;
41984;SDS011;28319;48.116;10.818;2023-07-08T13:57:28;2.65;;;2.45;;
41984;SDS011;28319;48.116;10.818;2023-07-08T14:02:35;3.53;;;2.58;;
41984;SDS011;28319;48.116;10.818;2023-07-08T14:07:44;5.78;;;2.60;;
41984;SDS011;28319;48.116;10.818;2023-07-08T14:12:46;2.33;;;2.20;;
41984;SDS011;28319;48.116;10.818;2023-07-08T14:17:48;5.88;;;2.47;;
41984;SDS011;28319;48.116;10.818;2023-07-08T14:22:54;4.72;;;2.63;;
41984;SDS011;28319;48.116;10.818;2023-07-08T14:27:57;3.53;;;2.38;;
41984;SDS011;28319;48.116;10.818;2023-07-08T14:32:59;3.55;;;2.78;;
41984;SDS011;28319;48.116;10.818;2023-07-08T14:38:02;4.43;;;2.70;;
41984;SDS011;28319;48.116;10.818;2023-07-08T14:43:07;2.90;;;2.60;;
41984;SDS011;28319;48.116;10.818;2023-07-08T14:48:14;3.00;;;2.17;;
41984;SDS011;28319;48.116;10.818;2023-07-08T14:53:18;3.72;;;2.50;;
41984;SDS011;28319;48.116;10.818;2023-07-08T14:58:21;2.45;;;2.25;;
41984;SDS011;28319;48.116;10.818;2023-07-08T15:03:24;4.10;;;2.38;;
41984;SDS011;28319;48.116;10.818;2023-07-08T15:08:29;3.00;;;2.03;;
41984;SDS011;28319;48.116;10.818;2023-07-08T15:13:34;5.00;;;2.35;;
41984;SDS011;28319;48.116;10.818;2023-07-08T15:18:39;3.13;;;2.35;;
41984;SDS011;28319;48.116;10.818;2023-07-08T15:23:42;2.80;;;2.30;;
41984;SDS011;28319;48.116;10.818;2023-07-08T15:28:45;2.35;;;2.10;;
41984;SDS011;28319;48.116;10.818;2023-07-08T15:33:49;4.57;;;2.00;;
41984;SDS011;28319;48.116;10.818;2023-07-08T15:38:53;2.83;;;2.50;;
41984;SDS011;28319;48.116;10.818;2023-07-08T15:43:56;2.33;;;1.98;;
41984;SDS011;28319;48.116;10.818;2023-07-08T15:48:59;4.47;;;2.45;;
41984;SDS011;28319;48.116;10.818;2023-07-08T15:54:02;2.50;;;2.30;;
41984;SDS011;28319;48.116;10.818;2023-07-08T15:59:05;5.25;;;2.33;;
41984;SDS011;28319;48.116;10.818;2023-07-08T16:04:14;5.18;;;2.45;;
41984;SDS011;28319;48.116;10.818;2023-07-08T16:09:27;3.47;;;2.60;;
41984;SDS011;28319;48.116;10.818;2023-07-08T16:14:29;2.85;;;2.55;;
41984;SDS011;28319;48.116;10.818;2023-07-08T16:19:37;2.20;;;2.00;;
41984;SDS011;28319;48.116;10.818;2023-07-08T16:25:15;5.22;;;2.30;;
41984;SDS011;28319;48.116;10.818;2023-07-08T16:30:19;6.80;;;2.33;;
41984;SDS011;28319;48.116;10.818;2023-07-08T16:35:22;4.72;;;2.13;;
41984;SDS011;28319;48.116;10.818;2023-07-08T16:40:26;2.63;;;1.95;;
41984;SDS011;28319;48.116;10.818;2023-07-08T16:45:29;3.10;;;2.40;;
41984;SDS011;28319;48.116;10.818;2023-07-08T16:50:31;3.13;;;2.17;;
41984;SDS011;28319;48.116;10.818;2023-07-08T16:55:42;3.50;;;2.30;;
41984;SDS011;28319;48.116;10.818;2023-07-08T17:00:44;4.78;;;2.10;;
41984;SDS011;28319;48.116;10.818;2023-07-08T17:05:47;2.15;;;1.95;;
41984;SDS011;28319;48.116;10.818;2023-07-08T17:10:51;2.47;;;2.03;;
41984;SDS011;28319;48.116;10.818;2023-07-08T17:15:53;2.65;;;2.05;;
41984;SDS011;28319;48.116;10.818;2023-07-08T17:20:58;3.33;;;2.40;;
41984;SDS011;28319;48.116;10.818;2023-07-08T17:26:04;2.58;;;1.85;;
41984;SDS011;28319;48.116;10.818;2023-07-08T17:31:06;3.22;;;2.30;;
41984;SDS011;28319;48.116;10.818;2023-07-08T17:36:14;2.00;;;1.80;;
41984;SDS011;28319;48.116;10.818;2023-07-08T17:41:18;3.10;;;2.20;;
41984;SDS011;28319;48.116;10.818;2023-07-08T17:46:22;2.55;;;2.00;;
41984;SDS011;28319;48.116;10.818;2023-07-08T17:51:28;2.40;;;2.20;;
41984;SDS011;28319;48.116;10.818;2023-07-08T17:56:39;3.30;;;2.30;;
41984;SDS011;28319;48.116;10.818;2023-07-08T18:01:43;2.40;;;2.15;;
41984;SDS011;28319;48.116;10.818;2023-07-08T18:06:46;4.43;;;2.25;;
41984;SDS011;28319;48.116;10.818;2023-07-08T18:11:50;3.17;;;2.13;;
41984;SDS011;28319;48.116;10.818;2023-07-08T18:16:52;3.65;;;2.28;;
41984;SDS011;28319;48.116;10.818;2023-07-08T18:21:55;2.88;;;1.83;;
41984;SDS011;28319;48.116;10.818;2023-07-08T18:27:01;2.10;;;1.90;;
41984;SDS011;28319;48.116;10.818;2023-07-08T18:32:07;2.30;;;2.10;;
41984;SDS011;28319;48.116;10.818;2023-07-08T18:37:21;2.65;;;2.30;;
41984;SDS011;28319;48.116;10.818;2023-07-08T18:42:34;2.22;;;1.88;;
41984;SDS011;28319;48.116;10.818;2023-07-08T18:54:11;3.92;;;2.47;;
41984;SDS011;28319;48.116;10.818;2023-07-08T18:59:16;3.90;;;2.60;;
41984;SDS011;28319;48.116;10.818;2023-07-08T19:04:20;4.45;;;2.22;;
41984;SDS011;28319;48.116;10.818;2023-07-08T19:09:24;3.30;;;2.33;;
41984;SDS011;28319;48.116;10.818;2023-07-08T19:14:28;3.63;;;2.53;;
41984;SDS011;28319;48.116;10.818;2023-07-08T19:19:30;2.88;;;2.40;;
41984;SDS011;28319;48.116;10.818;2023-07-08T19:24:32;2.63;;;2.20;;
41984;SDS011;28319;48.116;10.818;2023-07-08T19:29:36;7.35;;;2.65;;
41984;SDS011;28319;48.116;10.818;2023-07-08T19:34:38;2.95;;;2.17;;
41984;SDS011;28319;48.116;10.818;2023-07-08T19:39:41;2.85;;;2.40;;
41984;SDS011;28319;48.116;10.818;2023-07-08T19:44:44;2.92;;;2.20;;
41984;SDS011;28319;48.116;10.818;2023-07-08T19:49:46;3.15;;;2.25;;
41984;SDS011;28319;48.116;10.818;2023-07-08T19:54:49;5.00;;;2.58;;
41984;SDS011;28319;48.116;10.818;2023-07-08T19:59:53;4.38;;;2.63;;
41984;SDS011;28319;48.116;10.818;2023-07-08T20:04:55;3.08;;;2.50;;
41984;SDS011;28319;48.116;10.818;2023-07-08T20:09:57;5.47;;;2.88;;
41984;SDS011;28319;48.116;10.818;2023-07-08T20:15:00;4.32;;;3.45;;
41984;SDS011;28319;48.116;10.818;2023-07-08T20:20:03;3.60;;;2.83;;
41984;SDS011;28319;48.116;10.818;2023-07-08T20:25:07;8.45;;;3.40;;
41984;SDS011;28319;48.116;10.818;2023-07-08T20:30:17;19.05;;;9.25;;
41984;SDS011;28319;48.116;10.818;2023-07-08T20:35:22;9.32;;;6.65;;
41984;SDS011;28319;48.116;10.818;2023-07-08T20:40:27;5.75;;;3.75;;
41984;SDS011;28319;48.116;10.818;2023-07-08T20:45:31;6.40;;;3.63;;
41984;SDS011;28319;48.116;10.818;2023-07-08T20:50:34;17.92;;;10.27;;
41984;SDS011;28319;48.116;10.818;2023-07-08T20:55:36;9.18;;;5.80;;
41984;SDS011;28319;48.116;10.818;2023-07-08T21:00:40;10.50;;;5.90;;
41984;SDS011;28319;48.116;10.818;2023-07-08T21:05:45;6.30;;;4.80;;
41984;SDS011;28319;48.116;10.818;2023-07-08T21:10:51;10.25;;;6.55;;
41984;SDS011;28319;48.116;10.818;2023-07-08T21:15:56;10.13;;;5.07;;
41984;SDS011;28319;48.116;10.818;2023-07-08T21:20:58;17.08;;;8.90;;
41984;SDS011;28319;48.116;10.818;2023-07-08T21:26:00;15.48;;;6.75;;
41984;SDS011;28319;48.116;10.818;2023-07-08T21:31:04;6.82;;;5.05;;
41984;SDS011;28319;48.116;10.818;2023-07-08T21:36:12;9.10;;;5.15;;
41984;SDS011;28319;48.116;10.818;2023-07-08T21:41:21;8.00;;;5.55;;
41984;SDS011;28319;48.116;10.818;2023-07-08T21:46:25;11.43;;;5.50;;
41984;SDS011;28319;48.116;10.818;2023-07-08T21:51:28;9.43;;;5.53;;
41984;SDS011;28319;48.116;10.818;2023-07-08T21:56:31;8.95;;;4.90;;
41984;SDS011;28319;48.116;10.818;2023-07-08T22:01:34;12.85;;;5.60;;
41984;SDS011;28319;48.116;10.818;2023-07-08T22:06:36;6.35;;;4.32;;
41984;SDS011;28319;48.116;10.818;2023-07-08T22:11:39;8.15;;;4.50;;
41984;SDS011;28319;48.116;10.818;2023-07-08T22:16:42;6.55;;;4.00;;
41984;SDS011;28319;48.116;10.818;2023-07-08T22:21:44;9.05;;;4.20;;
41984;SDS011;28319;48.116;10.818;2023-07-08T22:26:46;9.15;;;3.50;;
41984;SDS011;28319;48.116;10.818;2023-07-08T22:31:49;5.72;;;3.70;;
41984;SDS011;28319;48.116;10.818;2023-07-08T22:36:51;7.28;;;3.00;;
41984;SDS011;28319;48.116;10.818;2023-07-08T22:41:53;6.32;;;3.58;;
41984;SDS011;28319;48.116;10.818;2023-07-08T22:46:57;5.60;;;3.08;;
41984;SDS011;28319;48.116;10.818;2023-07-08T22:51:59;5.78;;;3.40;;
41984;SDS011;28319;48.116;10.818;2023-07-08T22:57:01;5.05;;;3.33;;
41984;SDS011;28319;48.116;10.818;2023-07-08T23:02:05;3.88;;;2.95;;
41984;SDS011;28319;48.116;10.818;2023-07-08T23:07:08;7.97;;;3.08;;
41984;SDS011;28319;48.116;10.818;2023-07-08T23:12:10;6.85;;;3.80;;
41984;SDS011;28319;48.116;10.818;2023-07-08T23:17:14;4.45;;;3.30;;
41984;SDS011;28319;48.116;10.818;2023-07-08T23:22:17;6.78;;;3.13;;
41984;SDS011;28319;48.116;10.818;2023-07-08T23:27:21;3.30;;;3.00;;
41984;SDS011;28319;48.116;10.818;2023-07-08T23:32:25;5.50;;;3.03;;
41984;SDS011;28319;48.116;10.818;2023-07-08T23:37:27;5.18;;;2.85;;
41984;SDS011;28319;48.116;10.818;2023-07-08T23:42:30;2.95;;;2.70;;
41984;SDS011;28319;48.116;10.818;2023-07-08T23:47:33;4.72;;;3.25;;
41984;SDS011;28319;48.116;10.818;2023-07-08T23:52:36;3.50;;;2.90;;
41984;SDS011;28319;48.116;10.818;2023-07-08T23:57:38;4.50;;;2.92;;
